Time;durP1;ratioP1;P1;durP2;ratioP2;P2;SDS_P1;SDS_P2;PMS_P1;PMS_P2;Temp;Humidity;BMP_temperature;BMP_pressure;BME280_temperature;BME280_humidity;BME280_pressure;Samples;Min_cycle;Max_cycle;Signal;HPM_P1;HPM_P2
2021/09/19 00:01:18;;;;;;;12.13;8.43;;;10.30;99.90;;;;;;4404283;28;657537;-69
2021/09/19 00:04:07;;;;;;;13.70;8.53;;;10.30;99.90;;;;;;4417891;28;657593;-69
2021/09/19 00:06:56;;;;;;;17.33;8.17;;;10.30;99.90;;;;;;4399243;28;658138;-69
2021/09/19 00:09:49;;;;;;;11.93;8.40;;;10.20;99.90;;;;;;4411035;28;658799;-69
2021/09/19 00:12:41;;;;;;;15.83;8.27;;;10.20;99.90;;;;;;4392206;28;658145;-69
2021/09/19 00:15:33;;;;;;;14.07;8.87;;;10.10;99.90;;;;;;4396057;28;657716;-69
2021/09/19 00:18:21;;;;;;;13.93;9.23;;;10.10;99.90;;;;;;4408439;28;658087;-69
2021/09/19 00:21:11;;;;;;;13.83;8.27;;;10.10;99.90;;;;;;4399086;28;658351;-69
2021/09/19 00:23:59;;;;;;;12.37;8.33;;;10.10;99.90;;;;;;4406099;28;658140;-69
2021/09/19 00:26:47;;;;;;;12.37;8.43;;;10.00;99.90;;;;;;4415110;28;657226;-69
2021/09/19 00:29:35;;;;;;;11.73;8.63;;;10.00;99.90;;;;;;4420435;28;658045;-69
2021/09/19 00:32:25;;;;;;;15.77;9.97;;;10.00;99.90;;;;;;4408408;28;657582;-69
2021/09/19 00:35:12;;;;;;;15.40;9.70;;;10.00;99.90;;;;;;4405780;28;657616;-69
2021/09/19 00:38:00;;;;;;;18.23;8.53;;;9.90;99.90;;;;;;4416241;28;659217;-69
2021/09/19 00:40:47;;;;;;;17.80;9.70;;;9.90;99.90;;;;;;4409264;28;656696;-69
2021/09/19 00:43:35;;;;;;;19.57;9.70;;;9.90;99.90;;;;;;4426647;28;658032;-69
2021/09/19 00:46:22;;;;;;;16.83;9.77;;;9.80;99.90;;;;;;4414225;28;657281;-69
2021/09/19 00:49:11;;;;;;;14.27;9.20;;;9.80;99.90;;;;;;4428478;28;657820;-69
2021/09/19 00:51:58;;;;;;;12.87;8.43;;;9.80;99.90;;;;;;4402450;28;657189;-69
2021/09/19 00:54:46;;;;;;;14.23;9.50;;;9.70;99.90;;;;;;4426563;28;656443;-69
2021/09/19 00:57:34;;;;;;;13.33;8.53;;;9.70;99.90;;;;;;4411456;28;657494;-69
2021/09/19 01:00:23;;;;;;;15.37;8.67;;;9.60;99.90;;;;;;4418716;28;656882;-69
2021/09/19 01:03:11;;;;;;;21.00;9.03;;;9.60;99.90;;;;;;4420186;28;656430;-69
2021/09/19 01:06:01;;;;;;;15.37;8.73;;;9.50;99.90;;;;;;4401358;28;657403;-69
2021/09/19 01:08:48;;;;;;;14.47;9.17;;;9.50;99.90;;;;;;4407610;28;657214;-69
2021/09/19 01:11:36;;;;;;;18.50;10.83;;;9.40;99.90;;;;;;4426734;28;656255;-69
2021/09/19 01:14:24;;;;;;;19.47;11.30;;;9.40;99.90;;;;;;4407853;28;657802;-69
2021/09/19 01:17:12;;;;;;;19.77;11.48;;;9.40;99.90;;;;;;4397519;28;657764;-69
2021/09/19 01:20:00;;;;;;;18.93;10.70;;;9.40;99.90;;;;;;4433287;28;658022;-69
2021/09/19 01:22:59;;;;;;;19.70;11.70;;;9.30;99.90;;;;;;4398654;28;657655;-69
2021/09/19 01:25:50;;;;;;;18.27;10.50;;;9.30;99.90;;;;;;4393659;28;658955;-69
2021/09/19 01:28:37;;;;;;;16.20;10.00;;;9.20;99.90;;;;;;4377077;28;657305;-69
2021/09/19 01:31:25;;;;;;;17.60;9.90;;;9.20;99.90;;;;;;4423671;28;658370;-69
2021/09/19 01:34:12;;;;;;;14.03;8.67;;;9.20;99.90;;;;;;4414061;28;656526;-69
2021/09/19 01:37:00;;;;;;;15.97;9.30;;;9.20;99.90;;;;;;4431941;28;657378;-69
2021/09/19 01:39:47;;;;;;;18.97;9.60;;;9.20;99.90;;;;;;4402403;28;656268;-69
2021/09/19 01:42:36;;;;;;;20.08;9.60;;;9.20;99.90;;;;;;4431148;28;657226;-69
2021/09/19 01:45:24;;;;;;;14.77;9.45;;;9.20;99.90;;;;;;4401014;28;657668;-69
2021/09/19 01:48:12;;;;;;;17.13;9.57;;;9.20;99.90;;;;;;4404746;28;656406;-69
2021/09/19 01:50:59;;;;;;;18.17;9.30;;;9.10;99.90;;;;;;4427872;28;657495;-69
2021/09/19 01:53:48;;;;;;;15.70;9.20;;;9.10;99.90;;;;;;4399647;28;656447;-69
2021/09/19 01:56:35;;;;;;;16.03;9.40;;;9.10;99.90;;;;;;4422902;28;656472;-69
2021/09/19 01:59:24;;;;;;;19.23;9.97;;;9.10;99.90;;;;;;4402586;28;656177;-69
2021/09/19 02:02:12;;;;;;;19.50;10.40;;;9.10;99.90;;;;;;4405293;28;656976;-69
2021/09/19 02:04:59;;;;;;;19.30;9.87;;;9.20;99.90;;;;;;4422787;28;658309;-69
2021/09/19 02:07:47;;;;;;;17.57;9.60;;;9.10;99.90;;;;;;4396865;28;656711;-69
2021/09/19 02:10:34;;;;;;;23.60;9.83;;;9.20;99.90;;;;;;4416813;28;657320;-69
2021/09/19 02:13:22;;;;;;;19.00;9.68;;;9.20;99.90;;;;;;4413134;28;656482;-69
2021/09/19 02:16:11;;;;;;;19.60;9.87;;;9.20;99.90;;;;;;4427950;28;657141;-69
2021/09/19 02:19:00;;;;;;;14.93;8.90;;;9.10;99.90;;;;;;4397621;28;656495;-69
2021/09/19 02:21:47;;;;;;;17.90;8.90;;;9.00;99.90;;;;;;4407217;28;657095;-69
2021/09/19 02:24:35;;;;;;;15.43;8.10;;;8.90;99.90;;;;;;4418558;28;656488;-69
2021/09/19 02:27:23;;;;;;;16.87;7.70;;;8.90;99.90;;;;;;4407947;28;656658;-69
2021/09/19 02:30:12;;;;;;;19.17;8.60;;;8.80;99.90;;;;;;4422531;28;657442;-69
2021/09/19 02:33:01;;;;;;;17.10;8.97;;;8.70;99.90;;;;;;4395561;28;657525;-69
2021/09/19 02:35:48;;;;;;;18.77;9.40;;;8.60;99.90;;;;;;4398039;28;656853;-69
2021/09/19 02:38:36;;;;;;;19.60;9.57;;;8.60;99.90;;;;;;4426906;28;656264;-69
2021/09/19 02:41:25;;;;;;;25.10;8.87;;;8.50;99.90;;;;;;4398026;28;657028;-69
2021/09/19 02:44:12;;;;;;;21.20;9.80;;;8.50;99.90;;;;;;4403385;28;656471;-69
2021/09/19 02:47:00;;;;;;;22.67;9.43;;;8.40;99.90;;;;;;4421808;28;656708;-69
2021/09/19 02:49:49;;;;;;;19.90;8.20;;;8.30;99.90;;;;;;4409170;28;656551;-68
2021/09/19 02:52:37;;;;;;;12.90;7.27;;;8.40;99.90;;;;;;4407664;28;656481;-69
2021/09/19 02:55:24;;;;;;;14.17;7.53;;;8.30;99.90;;;;;;4426741;28;657091;-69
2021/09/19 02:58:12;;;;;;;19.20;8.27;;;8.20;99.90;;;;;;4404903;28;656392;-69
2021/09/19 03:01:00;;;;;;;18.27;8.90;;;8.20;99.90;;;;;;4418460;28;657171;-69
2021/09/19 03:03:47;;;;;;;18.50;8.80;;;8.10;99.90;;;;;;4402588;28;656798;-68
2021/09/19 03:06:36;;;;;;;18.93;7.03;;;8.10;99.90;;;;;;4418318;28;657164;-69
2021/09/19 03:09:24;;;;;;;16.17;8.63;;;8.10;99.90;;;;;;4400700;28;656974;-69
2021/09/19 03:12:12;;;;;;;17.30;8.13;;;8.10;99.90;;;;;;4421259;28;657353;-69
2021/09/19 03:14:59;;;;;;;14.87;8.10;;;8.10;99.90;;;;;;4425746;28;657156;-69
2021/09/19 03:17:47;;;;;;;17.63;7.57;;;8.10;99.90;;;;;;4413035;28;657727;-69
2021/09/19 03:20:34;;;;;;;15.67;8.00;;;8.00;99.90;;;;;;4428771;28;657354;-69
2021/09/19 03:23:24;;;;;;;14.30;6.37;;;8.00;99.90;;;;;;4404241;28;656650;-69
2021/09/19 03:26:11;;;;;;;13.97;7.33;;;8.00;99.90;;;;;;4429627;28;656657;-69
2021/09/19 03:28:59;;;;;;;14.67;8.03;;;7.90;99.90;;;;;;4388609;28;657836;-68
2021/09/19 03:31:46;;;;;;;13.70;8.30;;;7.90;99.90;;;;;;4414879;28;656544;-69
2021/09/19 03:34:34;;;;;;;15.60;7.87;;;7.80;99.90;;;;;;4396061;28;657533;-69
2021/09/19 03:37:22;;;;;;;17.73;8.00;;;7.80;99.90;;;;;;4423271;28;657311;-68
2021/09/19 03:40:11;;;;;;;18.67;8.47;;;7.70;99.90;;;;;;4421045;28;656460;-69
2021/09/19 03:42:59;;;;;;;14.03;7.73;;;7.70;99.90;;;;;;4404258;28;656895;-69
2021/09/19 03:45:47;;;;;;;16.80;7.80;;;7.70;99.90;;;;;;4416434;28;657083;-69
2021/09/19 03:48:34;;;;;;;16.63;7.33;;;7.70;99.90;;;;;;4416446;28;657264;-68
2021/09/19 03:51:22;;;;;;;13.30;8.23;;;7.60;99.90;;;;;;4410697;28;656322;-68
2021/09/19 03:54:09;;;;;;;15.27;8.47;;;7.60;99.90;;;;;;4428208;28;657042;-68
2021/09/19 03:56:58;;;;;;;12.50;7.63;;;7.50;99.90;;;;;;4400017;28;657164;-69
2021/09/19 03:59:46;;;;;;;13.80;8.32;;;7.60;99.90;;;;;;4422620;28;656370;-68
2021/09/19 04:02:34;;;;;;;14.63;7.90;;;7.50;99.90;;;;;;4397242;28;657813;-69
2021/09/19 04:05:21;;;;;;;20.00;8.40;;;7.50;99.90;;;;;;4431204;28;656736;-68
2021/09/19 04:08:08;;;;;;;17.13;8.17;;;7.50;99.90;;;;;;4402499;28;658099;-69
2021/09/19 04:10:57;;;;;;;15.63;8.13;;;7.50;99.90;;;;;;4422477;28;656586;-68
2021/09/19 04:13:46;;;;;;;17.43;8.87;;;7.50;99.90;;;;;;4417146;28;657020;-68
2021/09/19 04:16:33;;;;;;;16.57;8.87;;;7.50;99.90;;;;;;4413035;28;657060;-69
2021/09/19 04:19:21;;;;;;;18.57;9.47;;;7.40;99.90;;;;;;4423427;28;656336;-69
2021/09/19 04:22:08;;;;;;;15.63;8.83;;;7.40;99.90;;;;;;4408563;28;657334;-69
2021/09/19 04:24:56;;;;;;;16.33;7.73;;;7.50;99.90;;;;;;4416084;28;656139;-69
2021/09/19 04:27:43;;;;;;;12.67;7.10;;;7.50;99.90;;;;;;4412876;28;657501;-68
2021/09/19 04:30:32;;;;;;;12.60;7.63;;;7.50;99.90;;;;;;4423757;28;656603;-68
2021/09/19 04:33:20;;;;;;;12.73;6.53;;;7.50;99.90;;;;;;4403087;28;657529;-68
2021/09/19 04:36:07;;;;;;;13.47;6.83;;;7.50;99.90;;;;;;4403853;28;656509;-68
2021/09/19 04:38:55;;;;;;;11.13;6.53;;;7.50;99.90;;;;;;4418438;28;657521;-69
2021/09/19 04:41:42;;;;;;;14.17;5.93;;;7.40;99.90;;;;;;4402896;28;656517;-68
2021/09/19 04:44:30;;;;;;;10.60;6.40;;;7.40;99.90;;;;;;4418128;28;657880;-69
2021/09/19 04:47:31;;;;;;;9.70;5.97;;;7.40;99.90;;;;;;4404122;28;656461;-68
2021/09/19 04:50:43;;;;;;;10.30;6.27;;;7.50;99.90;;;;;;4374508;28;657049;-68
2021/09/19 04:53:31;;;;;;;13.40;6.50;;;7.50;99.90;;;;;;4395718;28;656402;-68
2021/09/19 04:56:18;;;;;;;13.73;7.37;;;7.50;99.90;;;;;;4410174;28;656467;-69
2021/09/19 04:59:33;;;;;;;10.77;6.33;;;7.50;99.90;;;;;;4438781;28;656676;-68
2021/09/19 05:02:21;;;;;;;11.02;6.70;;;7.60;99.90;;;;;;4409817;28;656613;-69
2021/09/19 05:05:11;;;;;;;11.33;6.50;;;7.60;99.90;;;;;;4407760;28;658193;-69
2021/09/19 05:07:58;;;;;;;10.63;6.03;;;7.50;99.90;;;;;;4400053;28;657129;-69
2021/09/19 05:10:46;;;;;;;10.50;5.40;;;7.50;99.90;;;;;;4423721;28;656898;-69
2021/09/19 05:13:34;;;;;;;11.90;6.70;;;7.50;99.90;;;;;;4416076;28;656426;-69
2021/09/19 05:16:21;;;;;;;12.63;6.60;;;7.50;99.90;;;;;;4434323;28;656354;-69
2021/09/19 05:19:09;;;;;;;10.83;6.40;;;7.50;99.90;;;;;;4411472;28;658211;-68
2021/09/19 05:21:57;;;;;;;13.73;7.50;;;7.40;99.90;;;;;;4419384;28;656254;-69
2021/09/19 05:24:45;;;;;;;13.17;6.13;;;7.50;99.90;;;;;;4400081;28;657589;-69
2021/09/19 05:27:32;;;;;;;14.23;7.13;;;7.50;99.90;;;;;;4414105;28;656530;-68
2021/09/19 05:30:21;;;;;;;17.27;6.93;;;7.50;99.90;;;;;;4433842;28;656843;-68
2021/09/19 05:33:09;;;;;;;14.83;7.63;;;7.50;99.90;;;;;;4405002;28;657273;-68
2021/09/19 05:35:56;;;;;;;14.00;7.50;;;7.50;99.90;;;;;;4433555;28;656451;-68
2021/09/19 05:38:45;;;;;;;12.90;7.63;;;7.50;99.90;;;;;;4410677;28;657387;-68
2021/09/19 05:41:33;;;;;;;17.70;7.57;;;7.40;99.90;;;;;;4413474;28;656530;-68
2021/09/19 05:44:20;;;;;;;15.30;7.93;;;7.40;99.90;;;;;;4433717;28;657223;-68
2021/09/19 05:47:08;;;;;;;15.30;8.23;;;7.40;99.90;;;;;;4410864;28;656320;-68
2021/09/19 05:49:55;;;;;;;14.60;7.37;;;7.40;99.90;;;;;;4433344;28;656574;-68
2021/09/19 05:52:43;;;;;;;17.38;8.40;;;7.40;99.90;;;;;;4414847;28;656203;-68
2021/09/19 05:55:32;;;;;;;14.00;7.83;;;7.40;99.90;;;;;;4433367;28;656819;-68
2021/09/19 05:58:19;;;;;;;14.73;8.03;;;7.40;99.90;;;;;;4404435;28;656721;-68
2021/09/19 06:01:07;;;;;;;13.50;7.90;;;7.50;99.90;;;;;;4414043;28;656829;-68
2021/09/19 06:03:54;;;;;;;13.77;8.57;;;7.60;99.90;;;;;;4435181;28;657025;-68
2021/09/19 06:06:42;;;;;;;15.47;8.23;;;7.70;99.90;;;;;;4411178;28;656838;-68
2021/09/19 06:09:30;;;;;;;14.33;8.00;;;7.80;99.90;;;;;;4433534;28;657835;-68
2021/09/19 06:12:19;;;;;;;12.17;7.57;;;7.80;99.90;;;;;;4399935;28;656675;-68
2021/09/19 06:15:08;;;;;;;14.07;6.95;;;7.90;99.90;;;;;;4410046;28;657225;-68
2021/09/19 06:17:56;;;;;;;13.30;7.40;;;8.00;99.90;;;;;;4424154;28;656247;-68
2021/09/19 06:20:43;;;;;;;12.53;6.97;;;8.10;99.90;;;;;;4407039;28;657613;-69
2021/09/19 06:23:31;;;;;;;12.43;6.57;;;8.20;99.90;;;;;;4432776;28;656873;-68
2021/09/19 06:26:18;;;;;;;9.50;5.77;;;8.40;99.90;;;;;;4407175;28;658073;-68
2021/09/19 06:29:07;;;;;;;14.27;6.73;;;8.60;99.90;;;;;;4429562;28;655462;-68
2021/09/19 06:31:55;;;;;;;11.50;6.32;;;8.60;99.90;;;;;;4400936;28;658132;-68
2021/09/19 06:34:43;;;;;;;12.18;5.85;;;8.70;99.90;;;;;;4393547;28;656648;-69
2021/09/19 06:37:30;;;;;;;11.57;6.53;;;8.60;99.90;;;;;;4429883;28;657106;-68
2021/09/19 06:40:18;;;;;;;14.80;7.20;;;8.60;99.90;;;;;;4404709;28;656637;-68
2021/09/19 06:43:05;;;;;;;13.90;6.77;;;8.70;99.90;;;;;;4423340;28;656474;-68
2021/09/19 06:45:54;;;;;;;11.30;6.67;;;8.80;99.90;;;;;;4412717;28;656545;-68
2021/09/19 06:48:42;;;;;;;13.50;6.37;;;9.00;99.90;;;;;;4404725;28;656189;-68
2021/09/19 06:51:29;;;;;;;11.77;6.40;;;9.10;99.90;;;;;;4417369;28;657305;-68
2021/09/19 06:54:17;;;;;;;11.87;7.13;;;9.20;99.90;;;;;;4402219;28;656441;-69
2021/09/19 06:57:05;;;;;;;12.00;6.67;;;9.30;99.90;;;;;;4436497;28;657376;-68
2021/09/19 06:59:52;;;;;;;11.10;6.03;;;9.30;99.90;;;;;;4414398;28;657218;-68
2021/09/19 07:02:42;;;;;;;11.60;6.67;;;9.40;99.90;;;;;;4424303;28;657562;-68
2021/09/19 07:05:29;;;;;;;11.53;5.97;;;9.40;99.90;;;;;;4395357;28;657895;-69
2021/09/19 07:08:17;;;;;;;10.48;6.05;;;9.40;99.90;;;;;;4414743;28;656821;-69
2021/09/19 07:11:04;;;;;;;11.53;6.40;;;9.40;99.90;;;;;;4434247;28;656657;-68
2021/09/19 07:13:52;;;;;;;10.00;5.10;;;9.60;99.90;;;;;;4386662;28;656389;-68
2021/09/19 07:16:39;;;;;;;9.30;5.53;;;9.70;99.90;;;;;;4409539;28;656515;-68
2021/09/19 07:19:28;;;;;;;8.13;5.10;;;9.80;99.90;;;;;;4388539;28;655530;-68
2021/09/19 07:22:16;;;;;;;8.90;5.50;;;9.70;99.90;;;;;;4415828;28;656433;-68
2021/09/19 07:25:04;;;;;;;9.33;5.77;;;9.70;99.90;;;;;;4381637;28;656767;-67
2021/09/19 07:27:53;;;;;;;8.07;5.20;;;9.70;99.90;;;;;;4401674;28;655704;-68
2021/09/19 07:30:41;;;;;;;9.00;5.20;;;9.70;99.90;;;;;;4430282;28;655355;-68
2021/09/19 07:33:29;;;;;;;9.63;5.80;;;9.50;99.90;;;;;;4393046;28;655841;-68
2021/09/19 07:36:18;;;;;;;12.00;5.60;;;9.50;99.90;;;;;;4412081;28;655056;-67
2021/09/19 07:39:07;;;;;;;8.47;5.70;;;9.50;99.90;;;;;;4389329;28;657127;-68
2021/09/19 07:41:54;;;;;;;13.30;7.37;;;9.50;99.90;;;;;;4388959;28;656972;-68
2021/09/19 07:44:46;;;;;;;14.93;8.10;;;9.50;99.90;;;;;;4387917;28;656438;-69
2021/09/19 07:47:34;;;;;;;13.90;7.47;;;9.50;99.90;;;;;;4395008;28;657951;-68
2021/09/19 07:50:21;;;;;;;13.23;7.00;;;9.50;99.90;;;;;;4408990;28;657118;-68
2021/09/19 07:53:11;;;;;;;12.50;6.40;;;9.60;99.90;;;;;;4392420;28;657094;-68
2021/09/19 07:55:58;;;;;;;12.63;5.97;;;9.60;99.90;;;;;;4399989;28;657726;-68
2021/09/19 07:58:46;;;;;;;8.97;5.67;;;9.50;99.90;;;;;;4414179;28;657274;-67
2021/09/19 08:01:33;;;;;;;12.30;5.90;;;9.50;99.90;;;;;;4385622;28;657039;-68
2021/09/19 08:04:21;;;;;;;10.37;5.87;;;9.60;99.90;;;;;;4411837;28;656205;-68
2021/09/19 08:07:09;;;;;;;7.93;5.23;;;9.70;99.90;;;;;;4391698;28;657751;-68
2021/09/19 08:09:57;;;;;;;8.53;4.77;;;9.90;99.90;;;;;;4419117;28;655384;-67
2021/09/19 08:12:47;;;;;;;8.57;4.47;;;10.00;99.90;;;;;;4406587;28;655865;-68
2021/09/19 08:15:35;;;;;;;8.13;4.57;;;10.10;97.80;;;;;;4410253;28;658013;-68
2021/09/19 08:18:23;;;;;;;11.17;4.50;;;10.20;93.50;;;;;;4411752;28;657232;-68
2021/09/19 08:21:10;;;;;;;7.40;3.80;;;10.40;81.80;;;;;;4431800;28;658028;-67
2021/09/19 08:23:58;;;;;;;8.73;4.17;;;10.50;83.00;;;;;;4407463;28;656701;-68
2021/09/19 08:26:47;;;;;;;8.20;4.20;;;10.70;68.50;;;;;;4428954;28;656520;-68
2021/09/19 08:29:35;;;;;;;7.50;3.77;;;10.90;74.10;;;;;;4415459;28;656823;-67
2021/09/19 08:32:23;;;;;;;8.20;3.73;;;11.10;57.60;;;;;;4405792;28;656649;-68
2021/09/19 08:35:11;;;;;;;9.77;3.80;;;11.20;34.20;;;;;;4427379;28;656427;-67
2021/09/19 08:37:59;;;;;;;8.27;4.30;;;11.20;31.70;;;;;;4414689;28;657079;-68
2021/09/19 08:40:47;;;;;;;11.50;4.27;;;11.30;53.80;;;;;;4417911;28;656785;-68
2021/09/19 08:43:36;;;;;;;6.70;4.23;;;11.40;44.80;;;;;;4411874;28;657832;-67
2021/09/19 08:46:24;;;;;;;8.47;4.27;;;11.30;40.60;;;;;;4414387;28;657381;-68
2021/09/19 08:49:12;;;;;;;9.15;4.50;;;11.40;28.70;;;;;;4408362;28;656746;-68
2021/09/19 08:52:00;;;;;;;8.80;4.23;;;11.00;27.90;;;;;;4437665;28;657199;-67
2021/09/19 08:54:47;;;;;;;7.80;4.10;;;11.00;43.70;;;;;;4414482;28;656979;-68
2021/09/19 08:57:35;;;;;;;11.23;4.43;;;11.10;39.10;;;;;;4437777;28;657399;-68
2021/09/19 09:00:24;;;;;;;5.47;3.80;;;11.30;23.30;;;;;;4413941;28;657296;-68
2021/09/19 09:03:13;;;;;;;6.53;3.53;;;11.40;8.30;;;;;;4418096;28;656764;-68
2021/09/19 09:06:03;;;;;;;7.03;3.40;;;11.50;3.00;;;;;;4429482;28;655461;-67
2021/09/19 09:08:50;;;;;;;11.63;3.70;;;11.60;4.80;;;;;;4396812;28;655485;-67
2021/09/19 09:11:38;;;;;;;6.87;3.37;;;11.50;1.00;;;;;;4387239;28;656986;-68
2021/09/19 09:14:25;;;;;;;6.40;3.00;;;11.50;99.90;;;;;;4406446;28;655790;-67
2021/09/19 09:17:16;;;;;;;11.03;3.10;;;11.80;1.00;;;;;;4393162;28;656941;-67
2021/09/19 09:20:04;;;;;;;5.70;3.53;;;11.90;1.00;;;;;;4384020;28;657521;-68
2021/09/19 09:22:52;;;;;;;10.85;3.25;;;11.80;1.00;;;;;;4400089;28;656178;-68
2021/09/19 09:25:39;;;;;;;5.50;3.00;;;11.80;1.00;;;;;;4403304;28;656859;-67
2021/09/19 09:28:42;;;;;;;9.67;3.30;;;11.70;38.40;;;;;;4383756;28;655563;-68
2021/09/19 09:31:34;;;;;;;6.17;3.30;;;11.60;99.90;;;;;;4383299;28;656650;-68
2021/09/19 09:34:24;;;;;;;7.73;3.40;;;11.40;6.10;;;;;;4368055;28;656639;-68
2021/09/19 09:37:12;;;;;;;7.13;3.50;;;11.30;1.00;;;;;;4388290;28;655677;-69
2021/09/19 09:39:59;;;;;;;6.47;3.63;;;11.20;1.00;;;;;;4413776;28;657124;-68
2021/09/19 09:43:07;;;;;;;6.80;3.20;;;11.20;1.00;;;;;;4396034;28;654808;-67
2021/09/19 09:45:54;;;;;;;7.23;3.10;;;11.20;1.00;;;;;;4396360;28;655707;-68
2021/09/19 09:48:42;;;;;;;5.60;3.13;;;11.20;1.00;;;;;;4392867;28;655309;-69
2021/09/19 09:51:34;;;;;;;5.68;3.03;;;11.20;1.00;;;;;;4415528;28;655998;-68
2021/09/19 09:54:22;;;;;;;6.47;3.00;;;11.30;1.00;;;;;;4358457;28;655742;-69
2021/09/19 09:57:09;;;;;;;6.87;3.00;;;11.20;1.00;;;;;;4407337;28;656425;-68
2021/09/19 09:59:57;;;;;;;11.17;2.93;;;11.20;1.00;;;;;;4387050;28;655624;-69
2021/09/19 10:02:46;;;;;;;6.43;2.80;;;11.50;1.00;;;;;;4404753;28;658066;-67
2021/09/19 10:05:35;;;;;;;5.57;3.17;;;11.80;1.00;;;;;;4371592;28;657181;-67
2021/09/19 10:08:24;;;;;;;6.83;3.03;;;11.90;99.90;;;;;;4388556;28;656029;-69
2021/09/19 10:11:12;;;;;;;7.27;3.23;;;11.90;99.90;;;;;;4394338;28;657628;-68
2021/09/19 10:13:59;;;;;;;6.40;3.00;;;11.90;99.90;;;;;;4420066;28;658093;-68
2021/09/19 10:16:47;;;;;;;10.13;3.37;;;11.80;99.90;;;;;;4399104;28;656615;-68
2021/09/19 10:19:34;;;;;;;5.33;3.13;;;11.70;99.90;;;;;;4420683;28;658299;-68
2021/09/19 10:22:24;;;;;;;8.77;3.30;;;12.00;99.90;;;;;;4397249;28;656814;-68
2021/09/19 10:25:37;;;;;;;9.73;3.30;;;12.10;99.90;;;;;;4413349;28;656931;-68
2021/09/19 10:28:34;;;;;;;6.60;3.27;;;12.00;99.90;;;;;;4400125;28;657305;-68
2021/09/19 10:31:28;;;;;;;6.73;3.07;;;11.90;99.90;;;;;;4399373;28;656560;-68
2021/09/19 10:34:25;;;;;;;7.87;3.10;;;11.70;99.90;;;;;;4391458;28;656907;-68
2021/09/19 10:37:13;;;;;;;5.77;3.47;;;11.80;99.90;;;;;;4377079;28;657150;-67
2021/09/19 10:40:04;;;;;;;7.43;3.30;;;11.80;99.90;;;;;;4428945;28;656813;-68
2021/09/19 10:42:54;;;;;;;8.10;3.60;;;11.90;99.90;;;;;;4395591;28;656413;-68
2021/09/19 10:45:43;;;;;;;13.90;4.67;;;11.80;99.90;;;;;;4415183;28;656754;-68
2021/09/19 10:48:32;;;;;;;11.50;4.47;;;11.80;99.90;;;;;;4425638;28;657496;-68
2021/09/19 10:51:19;;;;;;;10.43;4.80;;;11.60;99.90;;;;;;4395925;28;658690;-68
2021/09/19 10:54:07;;;;;;;10.00;4.50;;;11.60;99.90;;;;;;4401508;28;657628;-69
2021/09/19 10:56:58;;;;;;;8.30;4.23;;;11.60;99.90;;;;;;4426242;28;658530;-68
2021/09/19 11:00:17;;;;;;;10.07;4.27;;;11.60;99.90;;;;;;4386480;28;657097;-68
2021/09/19 11:03:06;;;;;;;8.47;4.00;;;11.60;99.90;;;;;;4390966;28;658210;-68
2021/09/19 11:05:54;;;;;;;11.43;4.43;;;11.60;99.90;;;;;;4405748;28;657202;-68
2021/09/19 11:08:42;;;;;;;12.90;4.33;;;11.50;99.90;;;;;;4410369;28;657572;-68
2021/09/19 11:11:30;;;;;;;10.37;4.00;;;11.50;99.90;;;;;;4425400;28;658516;-68
2021/09/19 11:14:17;;;;;;;9.30;4.07;;;11.50;99.90;;;;;;4409388;28;657452;-68
2021/09/19 11:17:21;;;;;;;8.60;4.53;;;11.30;99.90;;;;;;4414062;28;658119;-68
2021/09/19 11:20:24;;;;;;;6.27;3.67;;;11.20;99.90;;;;;;4402757;28;656732;-67
2021/09/19 11:23:21;;;;;;;6.87;4.10;;;11.30;99.90;;;;;;4396036;28;656929;-69
2021/09/19 11:26:10;;;;;;;6.20;3.88;;;11.30;1.00;;;;;;4377168;28;657226;-68
2021/09/19 11:28:58;;;;;;;9.43;4.37;;;11.40;1.00;;;;;;4412640;28;655409;-68
2021/09/19 11:31:46;;;;;;;7.30;4.10;;;11.60;1.00;;;;;;4430852;28;655344;-68
2021/09/19 11:34:35;;;;;;;12.63;4.70;;;11.60;1.00;;;;;;4412702;28;655973;-67
2021/09/19 11:37:23;;;;;;;9.47;3.70;;;11.70;1.00;;;;;;4404348;28;657072;-68
2021/09/19 11:40:11;;;;;;;11.80;4.33;;;11.80;1.00;;;;;;4432778;28;655388;-67
2021/09/19 11:43:01;;;;;;;9.93;4.22;;;11.80;1.00;;;;;;4411318;28;657029;-68
2021/09/19 11:45:48;;;;;;;11.60;4.43;;;11.70;59.50;;;;;;4400042;28;655755;-68
2021/09/19 11:48:36;;;;;;;6.80;4.20;;;11.60;99.90;;;;;;4426779;28;657487;-68
2021/09/19 11:51:25;;;;;;;6.93;3.90;;;11.50;1.00;;;;;;4410531;28;656888;-69
2021/09/19 11:54:13;;;;;;;7.00;4.20;;;11.50;1.00;;;;;;4400667;28;655643;-68
2021/09/19 11:57:01;;;;;;;8.37;3.87;;;11.70;1.00;;;;;;4427366;28;655565;-68
2021/09/19 11:59:49;;;;;;;8.00;4.37;;;12.00;99.90;;;;;;4405840;28;656756;-68
2021/09/19 12:02:39;;;;;;;8.70;3.70;;;12.20;1.00;;;;;;4414920;28;657117;-68
2021/09/19 12:05:27;;;;;;;7.43;4.10;;;12.60;99.90;;;;;;4414476;28;655293;-69
2021/09/19 12:08:16;;;;;;;9.43;4.33;;;13.00;99.90;;;;;;4441887;28;656643;-68
2021/09/19 12:11:04;;;;;;;8.33;4.27;;;13.40;99.90;;;;;;4412549;28;657879;-68
2021/09/19 12:13:52;;;;;;;7.57;4.10;;;13.70;99.90;;;;;;4428415;28;656292;-69
2021/09/19 12:16:39;;;;;;;9.50;3.93;;;13.80;99.90;;;;;;4425992;28;656900;-69
2021/09/19 12:19:27;;;;;;;10.77;3.83;;;13.80;99.90;;;;;;4407279;28;656203;-68
2021/09/19 12:22:17;;;;;;;7.43;3.90;;;13.70;99.90;;;;;;4437034;28;658746;-68
2021/09/19 12:25:07;;;;;;;7.00;4.07;;;13.50;99.90;;;;;;4393970;28;657723;-68
2021/09/19 12:27:58;;;;;;;7.50;3.70;;;13.50;99.90;;;;;;4410969;28;657959;-68
2021/09/19 12:30:45;;;;;;;6.83;4.00;;;13.40;99.90;;;;;;4410748;28;657299;-68
2021/09/19 12:33:33;;;;;;;5.93;3.10;;;13.50;99.90;;;;;;4414502;28;656581;-68
2021/09/19 12:36:22;;;;;;;8.90;4.27;;;13.60;99.90;;;;;;4433060;28;656867;-68
2021/09/19 12:39:15;;;;;;;11.13;4.57;;;13.50;99.90;;;;;;4414596;28;657063;-68
2021/09/19 12:42:05;;;;;;;15.23;4.00;;;13.50;99.90;;;;;;4412736;28;657643;-68
2021/09/19 12:44:53;;;;;;;6.33;4.27;;;13.80;99.90;;;;;;4412922;28;657762;-68
2021/09/19 12:47:41;;;;;;;11.03;4.47;;;14.20;99.90;;;;;;4433420;28;656769;-68
2021/09/19 12:50:30;;;;;;;8.63;4.23;;;14.60;99.90;;;;;;4409679;28;658842;-68
2021/09/19 12:53:23;;;;;;;9.20;4.83;;;15.00;99.90;;;;;;4414664;28;656581;-68
2021/09/19 12:56:10;;;;;;;7.67;4.33;;;14.90;99.90;;;;;;4410010;28;656878;-68
2021/09/19 12:58:59;;;;;;;10.13;4.33;;;14.80;99.90;;;;;;4404776;28;656568;-68
2021/09/19 13:01:47;;;;;;;9.57;4.63;;;14.60;99.90;;;;;;4410596;28;657528;-69
2021/09/19 13:04:34;;;;;;;7.20;4.33;;;14.30;99.90;;;;;;4433105;28;657665;-68
2021/09/19 13:07:23;;;;;;;9.63;4.50;;;14.30;99.90;;;;;;4412767;28;656511;-69
2021/09/19 13:10:11;;;;;;;8.70;4.40;;;14.20;99.90;;;;;;4425088;28;656524;-68
2021/09/19 13:12:58;;;;;;;8.00;4.10;;;13.80;99.90;;;;;;4431270;28;656524;-68
2021/09/19 13:15:47;;;;;;;9.33;4.10;;;13.50;99.90;;;;;;4438622;28;657325;-68
2021/09/19 13:18:35;;;;;;;6.88;4.03;;;13.30;99.90;;;;;;4410483;28;657097;-68
2021/09/19 13:21:23;;;;;;;7.43;3.50;;;13.10;99.90;;;;;;4430574;28;656489;-68
2021/09/19 13:24:10;;;;;;;12.43;3.80;;;12.80;99.90;;;;;;4449254;28;656447;-68
2021/09/19 13:26:58;;;;;;;8.75;4.05;;;12.80;99.90;;;;;;4429207;28;657883;-68
2021/09/19 13:29:46;;;;;;;9.37;4.73;;;12.70;99.90;;;;;;4449581;28;656672;-68
2021/09/19 13:32:34;;;;;;;10.60;4.83;;;12.50;99.90;;;;;;4411432;28;656404;-70
2021/09/19 13:35:22;;;;;;;7.13;4.33;;;12.50;99.90;;;;;;4411347;28;657628;-69
2021/09/19 13:38:09;;;;;;;8.57;4.37;;;12.40;99.90;;;;;;4446770;28;656416;-68
2021/09/19 13:40:57;;;;;;;6.10;4.13;;;12.30;99.90;;;;;;4408434;28;656921;-68
2021/09/19 13:43:45;;;;;;;8.30;4.30;;;12.20;99.90;;;;;;4430372;28;656691;-68
2021/09/19 13:46:32;;;;;;;9.07;4.40;;;12.10;99.90;;;;;;4423788;28;656518;-69
2021/09/19 13:49:24;;;;;;;8.40;4.47;;;12.10;99.90;;;;;;4448563;28;656842;-68
2021/09/19 13:52:12;;;;;;;7.13;4.27;;;12.20;99.90;;;;;;4399417;28;656059;-68
2021/09/19 13:54:59;;;;;;;8.57;3.97;;;12.20;99.90;;;;;;4399464;28;657484;-67
2021/09/19 13:57:47;;;;;;;8.17;3.93;;;12.10;99.90;;;;;;4408647;28;656758;-69
2021/09/19 14:00:37;;;;;;;9.50;4.13;;;12.10;99.90;;;;;;4431650;28;656864;-68
2021/09/19 14:03:24;;;;;;;7.00;4.30;;;12.10;99.90;;;;;;4409067;28;657788;-68
2021/09/19 14:06:13;;;;;;;10.87;4.17;;;12.10;99.90;;;;;;4415301;28;657211;-69
2021/09/19 14:09:03;;;;;;;6.50;4.00;;;12.30;99.90;;;;;;4430733;28;658176;-68
2021/09/19 14:11:51;;;;;;;6.93;4.17;;;12.40;99.90;;;;;;4394210;28;656397;-68
2021/09/19 14:14:38;;;;;;;8.83;4.37;;;12.50;99.90;;;;;;4394796;28;656716;-68
2021/09/19 14:17:26;;;;;;;13.53;4.13;;;12.50;99.90;;;;;;4412022;28;656950;-68
2021/09/19 14:20:14;;;;;;;10.40;4.40;;;12.40;99.90;;;;;;4391868;28;657557;-68
2021/09/19 14:23:03;;;;;;;9.57;4.03;;;12.20;99.90;;;;;;4409640;28;658084;-69
2021/09/19 14:25:51;;;;;;;10.93;4.33;;;12.30;99.90;;;;;;4412928;28;656242;-68